Seajet2 — SX6800 — position and weather

sailwx.info

Track history (hours):
 
Tides and Currents Weather Stations Pressure Air Temp Water Temp Dewpoint Dewpoint Depression Visibility Wind Speed Wind Dir Waves Ship Positions

Seajet2

Last reported at 2017-Sep-21 04:47 UTC. Time now 2017-Sep-21 05:26 UTC.
Position N 37°36' E 023°47'.

Length 42 m.

Type: High speed craft. MMSI: 237006600.

Date/timePositionNaut miles runAvg speedWind from/ knotsBaromVisibWave heightAir tempDewpointWater temp
2017-Sep-21 04:47N 37°36' E 023°47'934.0
2017-Sep-21 04:31N 37°44' E 023°40'1325.2
2017-Sep-21 04:00N 37°57' E 023°38'0 0.1
2017-Sep-21 03:31N 37°57' E 023°38'0 0.0
2017-Sep-21 03:01N 37°57' E 023°38'0 0.0
2017-Sep-21 02:30N 37°57' E 023°38'0 0.0
2017-Sep-21 02:00N 37°57' E 023°38'0 0.0
2017-Sep-21 01:31N 37°57' E 023°38'0 0.0
2017-Sep-21 01:00N 37°57' E 023°38'0 0.0
2017-Sep-21 00:31N 37°57' E 023°38'0 0.0
2017-Sep-21 00:00N 37°57' E 023°38'0 0.0
2017-Sep-20 23:30N 37°57' E 023°38'0 0.0
2017-Sep-20 23:00N 37°57' E 023°38'0 0.0
2017-Sep-20 22:30N 37°57' E 023°38'0 0.0
2017-Sep-20 22:00N 37°57' E 023°38'0 0.0
2017-Sep-20 21:30N 37°57' E 023°38'0 0.4
2017-Sep-20 21:00N 37°57' E 023°38'1427.0
2017-Sep-20 20:30N 37°44' E 023°44'8816.4
2017-Sep-20 15:09N 36°59' E 025°19'534.6
2017-Sep-20 15:01N 37°04' E 025°20'2322.2
2017-Sep-20 13:59N 37°27' E 025°20'816.4
2017-Sep-20 13:30N 37°19' E 025°18'1326.8
2017-Sep-20 13:00N 37°06' E 025°22'41 8.1
2017-Sep-20 07:56N 36°44' E 024°39'7121.3
2017-Sep-20 04:36N 37°40' E 023°43'336.1
2017-Sep-20 04:31N 37°42' E 023°41'1428.6
2017-Sep-20 04:00N 37°57' E 023°38'0 0.1
2017-Sep-20 03:30N 37°57' E 023°38'0 0.0
2017-Sep-20 03:00N 37°57' E 023°38'0 0.0
2017-Sep-20 02:30N 37°57' E 023°38'0 0.0
2017-Sep-20 02:00N 37°57' E 023°38'0 0.0
2017-Sep-20 01:30N 37°57' E 023°38'0 0.0
2017-Sep-20 01:00N 37°57' E 023°38'0 0.0
2017-Sep-20 00:30N 37°57' E 023°38'0 0.0
2017-Sep-20 00:00N 37°57' E 023°38'0 0.0
2017-Sep-19 23:30N 37°57' E 023°38'0 0.0
2017-Sep-19 23:00N 37°57' E 023°38'0 0.0
2017-Sep-19 22:30N 37°57' E 023°38'4 8.7
2017-Sep-19 21:59N 37°52' E 023°39'5 9.7
2017-Sep-19 21:30N 37°48' E 023°41'1836.4
2017-Sep-19 21:00N 37°33' E 023°54'1835.7
2017-Sep-19 20:31N 37°21' E 024°11'3226.3
2017-Sep-19 19:17N 36°54' E 024°33'36 8.7
2017-Sep-19 15:11N 36°59' E 025°18'636.4
2017-Sep-19 15:00N 37°05' E 025°20'1019.7
2017-Sep-19 14:31N 37°15' E 025°20'1224.0
2017-Sep-19 14:00N 37°27' E 025°20'1224.5
2017-Sep-19 13:31N 37°15' E 025°21'917.8
2017-Sep-19 13:00N 37°06' E 025°20'8410.0
2017-Sep-19 04:38N 37°39' E 023°44'436.6
2017-Sep-19 04:31N 37°43' E 023°41'1428.1
2017-Sep-19 04:01N 37°57' E 023°38'0 0.1
2017-Sep-19 03:30N 37°57' E 023°38'0 0.0
2017-Sep-19 03:00N 37°57' E 023°38'0 0.0
2017-Sep-19 02:30N 37°57' E 023°38'0 0.0
2017-Sep-19 02:00N 37°57' E 023°38'0 0.0
2017-Sep-19 01:30N 37°57' E 023°38'0 0.0
2017-Sep-19 01:00N 37°57' E 023°38'0 0.0
2017-Sep-19 00:30N 37°57' E 023°38'0 0.0
2017-Sep-19 00:00N 37°57' E 023°38'0 0.0
2017-Sep-18 23:30N 37°57' E 023°38'0 0.0
2017-Sep-18 23:00N 37°57' E 023°38'0 0.0
2017-Sep-18 22:30N 37°57' E 023°38'0 0.0
2017-Sep-18 22:00N 37°57' E 023°38'0 0.0
2017-Sep-18 21:30N 37°57' E 023°38'0 0.0
2017-Sep-18 21:00N 37°57' E 023°38'0 0.0
2017-Sep-18 20:30N 37°57' E 023°38'0 0.0
2017-Sep-18 20:00N 37°57' E 023°38'0 0.0
2017-Sep-18 19:30N 37°57' E 023°38'0 0.0
2017-Sep-18 19:00N 37°57' E 023°38'0 0.0
2017-Sep-18 18:30N 37°57' E 023°38'0 0.0
2017-Sep-18 18:00N 37°57' E 023°38'0 0.0
2017-Sep-18 17:30N 37°57' E 023°38'0 0.0
2017-Sep-18 17:00N 37°57' E 023°38'0 0.0
2017-Sep-18 16:30N 37°57' E 023°38'612.8
2017-Sep-18 16:01N 37°50' E 023°39'1836.1
2017-Sep-18 15:30N 37°35' E 023°51'5 0.5
2017-Sep-18 04:58N 37°30' E 023°55'1735.9
2017-Sep-18 04:30N 37°43' E 023°41'1428.0
2017-Sep-18 04:00N 37°57' E 023°38'0 0.1
2017-Sep-18 03:30N 37°57' E 023°38'0 0.0
2017-Sep-18 03:00N 37°57' E 023°38'0 0.0
2017-Sep-18 02:30N 37°57' E 023°38'0 0.0
2017-Sep-18 02:00N 37°57' E 023°38'0 0.0
2017-Sep-18 01:30N 37°57' E 023°38'0 0.0
2017-Sep-18 01:00N 37°57' E 023°38'0 0.0
2017-Sep-18 00:30N 37°57' E 023°38'0 0.0
2017-Sep-18 00:00N 37°57' E 023°38'0 0.0
2017-Sep-17 23:30N 37°57' E 023°38'0 0.0
2017-Sep-17 23:00N 37°57' E 023°38'0 0.0
2017-Sep-17 22:30N 37°57' E 023°38'0 0.0
2017-Sep-17 22:00N 37°57' E 023°38'917.7
2017-Sep-17 21:31N 37°48' E 023°41'1836.2
2017-Sep-17 21:00N 37°33' E 023°53'7811.2
2017-Sep-17 14:02N 36°59' E 025°22'135.5
2017-Sep-17 14:01N 37°00' E 025°22'918.7
2017-Sep-17 13:30N 37°10' E 025°21'1734.9
2017-Sep-17 13:01N 37°27' E 025°19'713.9
2017-Sep-17 12:31N 37°20' E 025°20'1427.5
2017-Sep-17 12:00N 37°06' E 025°22'8311.4
2017-Sep-17 04:42N 37°38' E 023°46'735.5
2017-Sep-17 04:31N 37°43' E 023°41'1427.2
2017-Sep-17 04:00N 37°57' E 023°38'0 0.1
2017-Sep-17 03:30N 37°57' E 023°38'0 0.0
2017-Sep-17 03:01N 37°57' E 023°38'0 0.0
2017-Sep-17 02:31N 37°57' E 023°38'0 0.0
2017-Sep-17 02:01N 37°57' E 023°38'0 0.0
2017-Sep-17 01:31N 37°57' E 023°38'0 0.0
2017-Sep-17 01:00N 37°57' E 023°38'0 0.0
2017-Sep-17 00:30N 37°57' E 023°38'0 0.0
2017-Sep-17 00:01N 37°57' E 023°38'0 0.0
2017-Sep-16 23:31N 37°57' E 023°38'0 0.0
2017-Sep-16 23:01N 37°57' E 023°38'0 0.0
2017-Sep-16 22:31N 37°57' E 023°38'0 0.1
2017-Sep-16 22:01N 37°57' E 023°38'1325.8
2017-Sep-16 21:31N 37°44' E 023°43'8713.7
2017-Sep-16 15:08N 36°59' E 025°17'537.5
2017-Sep-16 15:01N 37°04' E 025°19'918.7
2017-Sep-16 14:31N 37°13' E 025°20'1428.1
2017-Sep-16 14:00N 37°27' E 025°20'919.0
2017-Sep-16 13:31N 37°18' E 025°19'1223.3
2017-Sep-16 13:01N 37°06' E 025°22'8510.2
2017-Sep-16 04:38N 37°40' E 023°44'436.0
2017-Sep-16 04:30N 37°43' E 023°41'1326.7
2017-Sep-16 04:00N 37°57' E 023°38'0 0.0
2017-Sep-16 03:30N 37°57' E 023°38'0 0.0
2017-Sep-16 03:00N 37°57' E 023°38'0 0.0
2017-Sep-16 02:30N 37°57' E 023°38'0 0.0
2017-Sep-16 02:00N 37°57' E 023°38'0 0.0
2017-Sep-16 01:30N 37°57' E 023°38'0 0.0
2017-Sep-16 01:00N 37°57' E 023°38'0 0.0
2017-Sep-16 00:30N 37°57' E 023°38'0 0.0
2017-Sep-16 00:01N 37°57' E 023°38'0 0.0
2017-Sep-15 23:30N 37°57' E 023°38'0 0.0
2017-Sep-15 23:00N 37°57' E 023°38'0 0.0
2017-Sep-15 22:30N 37°57' E 023°38'0 0.0
2017-Sep-15 22:00N 37°57' E 023°38'0 0.0
2017-Sep-15 21:30N 37°57' E 023°38'0 0.0
2017-Sep-15 21:00N 37°57' E 023°38'0 0.0
2017-Sep-15 20:31N 37°57' E 023°38'0 0.0
2017-Sep-15 20:00N 37°57' E 023°38'0 0.0
2017-Sep-15 19:30N 37°57' E 023°38'0 0.0
2017-Sep-15 19:00N 37°57' E 023°38'0 0.0
2017-Sep-15 18:30N 37°57' E 023°38'0 0.0
2017-Sep-15 18:00N 37°57' E 023°38'0 0.0
2017-Sep-15 17:31N 37°57' E 023°38'0 0.0
2017-Sep-15 17:00N 37°57' E 023°38'0 0.0
2017-Sep-15 16:30N 37°57' E 023°38'1020.5
2017-Sep-15 16:00N 37°47' E 023°42'1935.5
2017-Sep-15 15:29N 37°31' E 023°55'3334.9
2017-Sep-15 14:32N 37°07' E 024°24'135.7
2017-Sep-15 14:30N 37°07' E 024°25'47 4.7
2017-Sep-15 04:38N 37°40' E 023°43'535.5
2017-Sep-15 04:30N 37°44' E 023°40'1326.1
2017-Sep-15 04:00N 37°57' E 023°38'0 0.1
2017-Sep-15 03:30N 37°57' E 023°38'0 0.0
2017-Sep-15 03:00N 37°57' E 023°38'0 0.0
2017-Sep-15 02:30N 37°57' E 023°38'0 0.0
2017-Sep-15 02:00N 37°57' E 023°38'0 0.0
2017-Sep-15 01:30N 37°57' E 023°38'0 0.0
2017-Sep-15 01:00N 37°57' E 023°38'0 0.0
2017-Sep-15 00:30N 37°57' E 023°38'0 0.0
2017-Sep-15 00:00N 37°57' E 023°38'0 0.0
2017-Sep-14 23:30N 37°57' E 023°38'0 0.0
2017-Sep-14 23:00N 37°57' E 023°38'0 0.0
2017-Sep-14 22:30N 37°57' E 023°38'2 3.5
2017-Sep-14 22:00N 37°55' E 023°37'10112.8
2017-Sep-14 14:09N 36°59' E 025°22'535.9
2017-Sep-14 14:01N 37°04' E 025°20'1019.1
2017-Sep-14 13:31N 37°14' E 025°20'1326.6
2017-Sep-14 13:00N 37°27' E 025°20'1019.2
2017-Sep-14 12:31N 37°18' E 025°19'1122.8
2017-Sep-14 12:00N 37°06' E 025°22'8711.8
2017-Sep-14 04:35N 37°42' E 023°42'336.5
2017-Sep-14 04:31N 37°44' E 023°40'12 2.0
2017-Sep-13 22:27N 37°56' E 023°38'1430.7
2017-Sep-13 22:00N 37°44' E 023°44'8713.9
2017-Sep-13 15:46N 36°59' E 025°18'830.2
2017-Sep-13 15:31N 37°06' E 025°22'1326.7
2017-Sep-13 15:01N 37°20' E 025°20'714.9
2017-Sep-13 14:31N 37°27' E 025°19'1631.0
2017-Sep-13 14:01N 37°12' E 025°21'510.5
2017-Sep-13 13:31N 37°06' E 025°22'86 9.8
2017-Sep-13 04:46N 37°40' E 023°43'936.0
2017-Sep-13 04:31N 37°49' E 023°37'8 1.4
2017-Sep-12 22:51N 37°56' E 023°38'513.3
2017-Sep-12 22:31N 37°52' E 023°39'9413.6
2017-Sep-12 15:33N 36°59' E 025°17'235.2
2017-Sep-12 15:31N 37°01' E 025°18'1020.3
2017-Sep-12 15:00N 37°11' E 025°21'1633.0
2017-Sep-12 14:31N 37°27' E 025°19'611.0
2017-Sep-12 14:01N 37°22' E 025°18'1631.3
2017-Sep-12 13:30N 37°06' E 025°22'85 9.6
2017-Sep-12 04:38N 37°39' E 023°44'436.0
2017-Sep-12 04:31N 37°43' E 023°41'1427.4
2017-Sep-12 04:01N 37°57' E 023°38'0 0.0
2017-Sep-12 03:30N 37°57' E 023°38'0 0.0
2017-Sep-12 03:00N 37°57' E 023°38'0 0.0
2017-Sep-12 02:30N 37°57' E 023°38'0 0.0
2017-Sep-12 02:00N 37°57' E 023°38'0 0.0
2017-Sep-12 01:30N 37°57' E 023°38'0 0.0
2017-Sep-12 01:00N 37°57' E 023°38'0 0.0
2017-Sep-12 00:30N 37°57' E 023°38'0 0.0
2017-Sep-12 00:00N 37°57' E 023°38'0 0.0
2017-Sep-11 23:30N 37°57' E 023°38'0 0.0
2017-Sep-11 23:00N 37°57' E 023°38'0 0.0
2017-Sep-11 22:30N 37°57' E 023°38'0 0.0
2017-Sep-11 22:00N 37°57' E 023°38'917.3
2017-Sep-11 21:31N 37°48' E 023°41'9313.5
2017-Sep-11 14:39N 37°01' E 025°21'320.5
2017-Sep-11 14:29N 37°04' E 025°20'816.9
2017-Sep-11 14:01N 37°12' E 025°21'1529.2
2017-Sep-11 13:31N 37°27' E 025°20'1020.9
2017-Sep-11 13:00N 37°17' E 025°22'1020.6
2017-Sep-11 12:31N 37°06' E 025°22'  
Track history (hours):
 
Tides and Currents Weather Stations Pressure Air Temp Water Temp Dewpoint Dewpoint Depression Visibility Wind Speed Wind Dir Waves Ship Positions

Seajet2

Last reported at 2017-Sep-21 04:47 UTC. Time now 2017-Sep-21 05:26 UTC.
Position N 37°36' E 023°47'.

Length 42 m.

Type: High speed craft. MMSI: 237006600.

Date/timePositionNaut miles runAvg speedWind from/ knotsBaromVisibWave heightAir tempDewpointWater temp
2017-Sep-21 04:47N 37°36' E 023°47'934.0
2017-Sep-21 04:31N 37°44' E 023°40'1325.2
2017-Sep-21 04:00N 37°57' E 023°38'0 0.1
2017-Sep-21 03:31N 37°57' E 023°38'0 0.0
2017-Sep-21 03:01N 37°57' E 023°38'0 0.0
2017-Sep-21 02:30N 37°57' E 023°38'0 0.0
2017-Sep-21 02:00N 37°57' E 023°38'0 0.0
2017-Sep-21 01:31N 37°57' E 023°38'0 0.0
2017-Sep-21 01:00N 37°57' E 023°38'0 0.0
2017-Sep-21 00:31N 37°57' E 023°38'0 0.0
2017-Sep-21 00:00N 37°57' E 023°38'0 0.0
2017-Sep-20 23:30N 37°57' E 023°38'0 0.0
2017-Sep-20 23:00N 37°57' E 023°38'0 0.0
2017-Sep-20 22:30N 37°57' E 023°38'0 0.0
2017-Sep-20 22:00N 37°57' E 023°38'0 0.0
2017-Sep-20 21:30N 37°57' E 023°38'0 0.4
2017-Sep-20 21:00N 37°57' E 023°38'1427.0
2017-Sep-20 20:30N 37°44' E 023°44'8816.4
2017-Sep-20 15:09N 36°59' E 025°19'534.6
2017-Sep-20 15:01N 37°04' E 025°20'2322.2
2017-Sep-20 13:59N 37°27' E 025°20'816.4
2017-Sep-20 13:30N 37°19' E 025°18'1326.8
2017-Sep-20 13:00N 37°06' E 025°22'41 8.1
2017-Sep-20 07:56N 36°44' E 024°39'7121.3
2017-Sep-20 04:36N 37°40' E 023°43'336.1
2017-Sep-20 04:31N 37°42' E 023°41'1428.6
2017-Sep-20 04:00N 37°57' E 023°38'0 0.1
2017-Sep-20 03:30N 37°57' E 023°38'0 0.0
2017-Sep-20 03:00N 37°57' E 023°38'0 0.0
2017-Sep-20 02:30N 37°57' E 023°38'0 0.0
2017-Sep-20 02:00N 37°57' E 023°38'0 0.0
2017-Sep-20 01:30N 37°57' E 023°38'0 0.0
2017-Sep-20 01:00N 37°57' E 023°38'0 0.0
2017-Sep-20 00:30N 37°57' E 023°38'0 0.0
2017-Sep-20 00:00N 37°57' E 023°38'0 0.0
2017-Sep-19 23:30N 37°57' E 023°38'0 0.0
2017-Sep-19 23:00N 37°57' E 023°38'0 0.0
2017-Sep-19 22:30N 37°57' E 023°38'4 8.7
2017-Sep-19 21:59N 37°52' E 023°39'5 9.7
2017-Sep-19 21:30N 37°48' E 023°41'1836.4
2017-Sep-19 21:00N 37°33' E 023°54'1835.7
2017-Sep-19 20:31N 37°21' E 024°11'3226.3
2017-Sep-19 19:17N 36°54' E 024°33'36 8.7
2017-Sep-19 15:11N 36°59' E 025°18'636.4
2017-Sep-19 15:00N 37°05' E 025°20'1019.7
2017-Sep-19 14:31N 37°15' E 025°20'1224.0
2017-Sep-19 14:00N 37°27' E 025°20'1224.5
2017-Sep-19 13:31N 37°15' E 025°21'917.8
2017-Sep-19 13:00N 37°06' E 025°20'8410.0
2017-Sep-19 04:38N 37°39' E 023°44'436.6
2017-Sep-19 04:31N 37°43' E 023°41'1428.1
2017-Sep-19 04:01N 37°57' E 023°38'0 0.1
2017-Sep-19 03:30N 37°57' E 023°38'0 0.0
2017-Sep-19 03:00N 37°57' E 023°38'0 0.0
2017-Sep-19 02:30N 37°57' E 023°38'0 0.0
2017-Sep-19 02:00N 37°57' E 023°38'0 0.0
2017-Sep-19 01:30N 37°57' E 023°38'0 0.0
2017-Sep-19 01:00N 37°57' E 023°38'0 0.0
2017-Sep-19 00:30N 37°57' E 023°38'0 0.0
2017-Sep-19 00:00N 37°57' E 023°38'0 0.0
2017-Sep-18 23:30N 37°57' E 023°38'0 0.0
2017-Sep-18 23:00N 37°57' E 023°38'0 0.0
2017-Sep-18 22:30N 37°57' E 023°38'0 0.0
2017-Sep-18 22:00N 37°57' E 023°38'0 0.0
2017-Sep-18 21:30N 37°57' E 023°38'0 0.0
2017-Sep-18 21:00N 37°57' E 023°38'0 0.0
2017-Sep-18 20:30N 37°57' E 023°38'0 0.0
2017-Sep-18 20:00N 37°57' E 023°38'0 0.0
2017-Sep-18 19:30N 37°57' E 023°38'0 0.0
2017-Sep-18 19:00N 37°57' E 023°38'0 0.0
2017-Sep-18 18:30N 37°57' E 023°38'0 0.0
2017-Sep-18 18:00N 37°57' E 023°38'0 0.0
2017-Sep-18 17:30N 37°57' E 023°38'0 0.0
2017-Sep-18 17:00N 37°57' E 023°38'0 0.0
2017-Sep-18 16:30N 37°57' E 023°38'612.8
2017-Sep-18 16:01N 37°50' E 023°39'1836.1
2017-Sep-18 15:30N 37°35' E 023°51'5 0.5
2017-Sep-18 04:58N 37°30' E 023°55'1735.9
2017-Sep-18 04:30N 37°43' E 023°41'1428.0
2017-Sep-18 04:00N 37°57' E 023°38'0 0.1
2017-Sep-18 03:30N 37°57' E 023°38'0 0.0
2017-Sep-18 03:00N 37°57' E 023°38'0 0.0
2017-Sep-18 02:30N 37°57' E 023°38'0 0.0
2017-Sep-18 02:00N 37°57' E 023°38'0 0.0
2017-Sep-18 01:30N 37°57' E 023°38'0 0.0
2017-Sep-18 01:00N 37°57' E 023°38'0 0.0
2017-Sep-18 00:30N 37°57' E 023°38'0 0.0
2017-Sep-18 00:00N 37°57' E 023°38'0 0.0
2017-Sep-17 23:30N 37°57' E 023°38'0 0.0
2017-Sep-17 23:00N 37°57' E 023°38'0 0.0
2017-Sep-17 22:30N 37°57' E 023°38'0 0.0
2017-Sep-17 22:00N 37°57' E 023°38'917.7
2017-Sep-17 21:31N 37°48' E 023°41'1836.2
2017-Sep-17 21:00N 37°33' E 023°53'7811.2
2017-Sep-17 14:02N 36°59' E 025°22'135.5
2017-Sep-17 14:01N 37°00' E 025°22'918.7
2017-Sep-17 13:30N 37°10' E 025°21'1734.9
2017-Sep-17 13:01N 37°27' E 025°19'713.9
2017-Sep-17 12:31N 37°20' E 025°20'1427.5
2017-Sep-17 12:00N 37°06' E 025°22'8311.4
2017-Sep-17 04:42N 37°38' E 023°46'735.5
2017-Sep-17 04:31N 37°43' E 023°41'1427.2
2017-Sep-17 04:00N 37°57' E 023°38'0 0.1
2017-Sep-17 03:30N 37°57' E 023°38'0 0.0
2017-Sep-17 03:01N 37°57' E 023°38'0 0.0
2017-Sep-17 02:31N 37°57' E 023°38'0 0.0
2017-Sep-17 02:01N 37°57' E 023°38'0 0.0
2017-Sep-17 01:31N 37°57' E 023°38'0 0.0
2017-Sep-17 01:00N 37°57' E 023°38'0 0.0
2017-Sep-17 00:30N 37°57' E 023°38'0 0.0
2017-Sep-17 00:01N 37°57' E 023°38'0 0.0
2017-Sep-16 23:31N 37°57' E 023°38'0 0.0
2017-Sep-16 23:01N 37°57' E 023°38'0 0.0
2017-Sep-16 22:31N 37°57' E 023°38'0 0.1
2017-Sep-16 22:01N 37°57' E 023°38'1325.8
2017-Sep-16 21:31N 37°44' E 023°43'8713.7
2017-Sep-16 15:08N 36°59' E 025°17'537.5
2017-Sep-16 15:01N 37°04' E 025°19'918.7
2017-Sep-16 14:31N 37°13' E 025°20'1428.1
2017-Sep-16 14:00N 37°27' E 025°20'919.0
2017-Sep-16 13:31N 37°18' E 025°19'1223.3
2017-Sep-16 13:01N 37°06' E 025°22'8510.2
2017-Sep-16 04:38N 37°40' E 023°44'436.0
2017-Sep-16 04:30N 37°43' E 023°41'1326.7
2017-Sep-16 04:00N 37°57' E 023°38'0 0.0
2017-Sep-16 03:30N 37°57' E 023°38'0 0.0
2017-Sep-16 03:00N 37°57' E 023°38'0 0.0
2017-Sep-16 02:30N 37°57' E 023°38'0 0.0
2017-Sep-16 02:00N 37°57' E 023°38'0 0.0
2017-Sep-16 01:30N 37°57' E 023°38'0 0.0
2017-Sep-16 01:00N 37°57' E 023°38'0 0.0
2017-Sep-16 00:30N 37°57' E 023°38'0 0.0
2017-Sep-16 00:01N 37°57' E 023°38'0 0.0
2017-Sep-15 23:30N 37°57' E 023°38'0 0.0
2017-Sep-15 23:00N 37°57' E 023°38'0 0.0
2017-Sep-15 22:30N 37°57' E 023°38'0 0.0
2017-Sep-15 22:00N 37°57' E 023°38'0 0.0
2017-Sep-15 21:30N 37°57' E 023°38'0 0.0
2017-Sep-15 21:00N 37°57' E 023°38'0 0.0
2017-Sep-15 20:31N 37°57' E 023°38'0 0.0
2017-Sep-15 20:00N 37°57' E 023°38'0 0.0
2017-Sep-15 19:30N 37°57' E 023°38'0 0.0
2017-Sep-15 19:00N 37°57' E 023°38'0 0.0
2017-Sep-15 18:30N 37°57' E 023°38'0 0.0
2017-Sep-15 18:00N 37°57' E 023°38'0 0.0
2017-Sep-15 17:31N 37°57' E 023°38'0 0.0
2017-Sep-15 17:00N 37°57' E 023°38'0 0.0
2017-Sep-15 16:30N 37°57' E 023°38'1020.5
2017-Sep-15 16:00N 37°47' E 023°42'1935.5
2017-Sep-15 15:29N 37°31' E 023°55'3334.9
2017-Sep-15 14:32N 37°07' E 024°24'135.7
2017-Sep-15 14:30N 37°07' E 024°25'47 4.7
2017-Sep-15 04:38N 37°40' E 023°43'535.5
2017-Sep-15 04:30N 37°44' E 023°40'1326.1
2017-Sep-15 04:00N 37°57' E 023°38'0 0.1
2017-Sep-15 03:30N 37°57' E 023°38'0 0.0
2017-Sep-15 03:00N 37°57' E 023°38'0 0.0
2017-Sep-15 02:30N 37°57' E 023°38'0 0.0
2017-Sep-15 02:00N 37°57' E 023°38'0 0.0
2017-Sep-15 01:30N 37°57' E 023°38'0 0.0
2017-Sep-15 01:00N 37°57' E 023°38'0 0.0
2017-Sep-15 00:30N 37°57' E 023°38'0 0.0
2017-Sep-15 00:00N 37°57' E 023°38'0 0.0
2017-Sep-14 23:30N 37°57' E 023°38'0 0.0
2017-Sep-14 23:00N 37°57' E 023°38'0 0.0
2017-Sep-14 22:30N 37°57' E 023°38'2 3.5
2017-Sep-14 22:00N 37°55' E 023°37'10112.8
2017-Sep-14 14:09N 36°59' E 025°22'535.9
2017-Sep-14 14:01N 37°04' E 025°20'1019.1
2017-Sep-14 13:31N 37°14' E 025°20'1326.6
2017-Sep-14 13:00N 37°27' E 025°20'1019.2
2017-Sep-14 12:31N 37°18' E 025°19'1122.8
2017-Sep-14 12:00N 37°06' E 025°22'8711.8
2017-Sep-14 04:35N 37°42' E 023°42'336.5
2017-Sep-14 04:31N 37°44' E 023°40'12 2.0
2017-Sep-13 22:27N 37°56' E 023°38'1430.7
2017-Sep-13 22:00N 37°44' E 023°44'8713.9
2017-Sep-13 15:46N 36°59' E 025°18'830.2
2017-Sep-13 15:31N 37°06' E 025°22'1326.7
2017-Sep-13 15:01N 37°20' E 025°20'714.9
2017-Sep-13 14:31N 37°27' E 025°19'1631.0
2017-Sep-13 14:01N 37°12' E 025°21'510.5
2017-Sep-13 13:31N 37°06' E 025°22'86 9.8
2017-Sep-13 04:46N 37°40' E 023°43'936.0
2017-Sep-13 04:31N 37°49' E 023°37'8 1.4
2017-Sep-12 22:51N 37°56' E 023°38'513.3
2017-Sep-12 22:31N 37°52' E 023°39'9413.6
2017-Sep-12 15:33N 36°59' E 025°17'235.2
2017-Sep-12 15:31N 37°01' E 025°18'1020.3
2017-Sep-12 15:00N 37°11' E 025°21'1633.0
2017-Sep-12 14:31N 37°27' E 025°19'611.0
2017-Sep-12 14:01N 37°22' E 025°18'1631.3
2017-Sep-12 13:30N 37°06' E 025°22'85 9.6
2017-Sep-12 04:38N 37°39' E 023°44'436.0
2017-Sep-12 04:31N 37°43' E 023°41'1427.4
2017-Sep-12 04:01N 37°57' E 023°38'0 0.0
2017-Sep-12 03:30N 37°57' E 023°38'0 0.0
2017-Sep-12 03:00N 37°57' E 023°38'0 0.0
2017-Sep-12 02:30N 37°57' E 023°38'0 0.0
2017-Sep-12 02:00N 37°57' E 023°38'0 0.0
2017-Sep-12 01:30N 37°57' E 023°38'0 0.0
2017-Sep-12 01:00N 37°57' E 023°38'0 0.0
2017-Sep-12 00:30N 37°57' E 023°38'0 0.0
2017-Sep-12 00:00N 37°57' E 023°38'0 0.0
2017-Sep-11 23:30N 37°57' E 023°38'0 0.0
2017-Sep-11 23:00N 37°57' E 023°38'0 0.0
2017-Sep-11 22:30N 37°57' E 023°38'0 0.0
2017-Sep-11 22:00N 37°57' E 023°38'917.3
2017-Sep-11 21:31N 37°48' E 023°41'9313.5
2017-Sep-11 14:39N 37°01' E 025°21'320.5
2017-Sep-11 14:29N 37°04' E 025°20'816.9
2017-Sep-11 14:01N 37°12' E 025°21'1529.2
2017-Sep-11 13:31N 37°27' E 025°20'1020.9
2017-Sep-11 13:00N 37°17' E 025°22'1020.6
2017-Sep-11 12:31N 37°06' E 025°22'  

Dump ship's entire track history